Time;durP1;ratioP1;P1;durP2;ratioP2;P2;SDS_P1;SDS_P2;PMS_P1;PMS_P2;Temp;Humidity;BMP_temperature;BMP_pressure;BME280_temperature;BME280_humidity;BME280_pressure;Samples;Min_cycle;Max_cycle;Signal;HPM_P1;HPM_P2
2022/12/23 00:01:07;;;;;;;17.57;9.23;;;7.50;99.90;;;;;;5053705;28;20421;-67
2022/12/23 00:03:33;;;;;;;17.60;10.73;;;7.50;99.90;;;;;;5062855;28;20205;-67
2022/12/23 00:05:59;;;;;;;20.07;10.57;;;7.60;99.90;;;;;;5041876;28;20434;-67
2022/12/23 00:08:26;;;;;;;16.03;8.83;;;7.50;99.90;;;;;;5037107;28;20450;-66
2022/12/23 00:10:53;;;;;;;14.40;8.93;;;7.50;99.90;;;;;;5039522;28;20419;-66
2022/12/23 00:16:04;;;;;;;13.33;8.63;;;7.50;99.90;;;;;;5035577;28;20407;-67
2022/12/23 00:18:30;;;;;;;16.17;8.90;;;7.50;99.90;;;;;;5048512;28;20422;-67
2022/12/23 00:20:58;;;;;;;14.47;8.83;;;7.50;99.90;;;;;;5061914;28;20513;-67
2022/12/23 00:23:23;;;;;;;13.57;8.77;;;7.50;99.90;;;;;;5048258;28;20552;-66
2022/12/23 00:25:49;;;;;;;12.97;8.13;;;7.60;99.90;;;;;;5061668;28;20431;-66
2022/12/23 00:28:20;;;;;;;14.17;9.13;;;7.40;99.90;;;;;;5065625;28;20737;-67
2022/12/23 00:30:54;;;;;;;13.60;9.03;;;7.40;99.90;;;;;;5053096;28;20565;-68
2022/12/23 00:33:22;;;;;;;16.43;9.37;;;7.50;99.90;;;;;;5049730;28;20465;-67
2022/12/23 00:35:49;;;;;;;14.00;9.53;;;7.50;99.90;;;;;;5054869;28;20466;-67
2022/12/23 00:38:16;;;;;;;13.40;7.13;;;7.60;99.90;;;;;;5047821;28;20409;-68
2022/12/23 00:43:26;;;;;;;14.77;9.00;;;7.50;99.90;;;;;;5039611;28;20445;-67
2022/12/23 00:45:52;;;;;;;17.73;9.60;;;7.50;99.90;;;;;;5035259;28;20470;-67
2022/12/23 00:51:02;;;;;;;12.83;7.60;;;7.50;99.90;;;;;;5055266;28;20411;-66
2022/12/23 00:53:27;;;;;;;17.90;8.40;;;7.50;99.90;;;;;;5047276;28;20946;-67
2022/12/23 00:55:53;;;;;;;16.10;9.23;;;7.40;99.90;;;;;;5044552;28;20193;-67
2022/12/23 00:58:20;;;;;;;11.60;8.20;;;7.50;99.90;;;;;;5047123;28;20193;-67
2022/12/23 01:06:16;;;;;;;14.80;8.57;;;7.50;99.90;;;;;;5039646;28;20421;-67
2022/12/23 01:08:42;;;;;;;12.47;8.80;;;7.60;99.90;;;;;;5042578;28;20466;-66
2022/12/23 01:11:09;;;;;;;15.30;8.73;;;7.40;99.90;;;;;;5049168;28;20427;-66
2022/12/23 01:13:36;;;;;;;16.57;8.00;;;7.50;99.90;;;;;;5045833;28;20437;-67
2022/12/23 01:16:04;;;;;;;15.40;9.23;;;7.70;99.90;;;;;;5044068;28;20532;-66
2022/12/23 01:18:30;;;;;;;13.50;7.97;;;7.60;99.90;;;;;;5052111;28;20418;-67
2022/12/23 01:20:55;;;;;;;10.47;7.37;;;7.70;99.90;;;;;;5045001;28;21101;-67
2022/12/23 01:23:21;;;;;;;16.23;9.50;;;7.70;99.90;;;;;;5055492;28;20456;-66
2022/12/23 01:25:54;;;;;;;11.00;8.20;;;7.60;99.90;;;;;;5050196;28;20194;-67
2022/12/23 01:28:19;;;;;;;11.40;8.20;;;7.50;99.90;;;;;;5041298;28;20203;-67
2022/12/23 01:30:45;;;;;;;14.53;8.43;;;7.50;99.90;;;;;;5046754;28;20430;-66
2022/12/23 01:33:10;;;;;;;13.20;9.40;;;7.40;99.90;;;;;;5042112;28;20330;-66
2022/12/23 01:35:36;;;;;;;14.17;8.63;;;7.40;99.90;;;;;;5047300;28;20179;-67
2022/12/23 01:38:01;;;;;;;14.00;9.20;;;7.50;99.90;;;;;;5038831;28;20246;-67
2022/12/23 01:40:34;;;;;;;14.50;7.97;;;7.40;99.90;;;;;;5045606;28;20183;-65
2022/12/23 01:42:59;;;;;;;16.90;9.80;;;7.20;99.90;;;;;;5046185;28;20567;-67
2022/12/23 01:45:30;;;;;;;14.07;9.13;;;7.30;99.90;;;;;;5028541;28;20417;-66
2022/12/23 01:48:08;;;;;;;13.50;8.80;;;7.40;99.90;;;;;;5042489;28;20192;-67
2022/12/23 01:50:34;;;;;;;17.80;9.80;;;7.30;99.90;;;;;;5050962;28;20417;-67
2022/12/23 01:53:15;;;;;;;14.70;9.57;;;7.30;99.90;;;;;;5043112;28;20779;-68
2022/12/23 01:56:00;;;;;;;14.87;9.33;;;7.30;99.90;;;;;;5054741;28;20663;-67
2022/12/23 01:58:38;;;;;;;13.73;9.23;;;7.40;99.90;;;;;;5040586;28;20919;-67
2022/12/23 02:03:52;;;;;;;16.27;9.37;;;7.40;99.90;;;;;;5049706;28;20439;-66
2022/12/23 02:09:27;;;;;;;15.03;10.40;;;7.30;99.90;;;;;;5043346;28;21133;-66
2022/12/23 02:11:58;;;;;;;15.07;9.67;;;7.30;99.90;;;;;;5043390;28;20420;-66
2022/12/23 02:17:48;;;;;;;16.37;10.23;;;7.30;99.90;;;;;;5050501;28;20406;-67
2022/12/23 02:20:51;;;;;;;19.57;9.93;;;7.20;99.90;;;;;;5036412;28;20464;-67
2022/12/23 02:24:13;;;;;;;11.80;8.03;;;7.30;99.90;;;;;;5037784;28;20443;-66
2022/12/23 02:26:41;;;;;;;26.10;12.30;;;7.30;99.90;;;;;;4955639;28;20958;-66
2022/12/23 02:29:35;;;;;;;17.37;11.10;;;7.30;99.90;;;;;;4966449;28;20572;-67
2022/12/23 02:32:21;;;;;;;20.20;10.83;;;7.20;99.90;;;;;;5027206;28;20430;-66
2022/12/23 02:35:09;;;;;;;22.70;10.43;;;7.30;99.90;;;;;;5037494;28;20415;-67
2022/12/23 02:37:54;;;;;;;18.33;10.60;;;7.20;99.90;;;;;;5041150;28;20509;-66
2022/12/23 02:40:39;;;;;;;15.83;9.50;;;7.30;99.90;;;;;;5044865;28;20434;-67
2022/12/23 02:43:23;;;;;;;15.90;10.63;;;7.30;99.90;;;;;;5050213;28;20425;-68
2022/12/23 02:45:58;;;;;;;16.40;10.90;;;7.40;99.90;;;;;;5051554;28;20410;-67
2022/12/23 02:48:57;;;;;;;14.60;9.57;;;7.40;99.90;;;;;;5031767;28;21028;-67
2022/12/23 02:51:28;;;;;;;18.87;10.10;;;7.40;99.90;;;;;;5039566;28;20405;-67
2022/12/23 02:53:58;;;;;;;20.37;11.27;;;7.40;99.90;;;;;;5052360;28;20430;-67
2022/12/23 02:56:27;;;;;;;20.73;11.67;;;7.30;99.90;;;;;;5042879;28;20406;-65
2022/12/23 02:58:57;;;;;;;17.33;10.93;;;7.40;99.90;;;;;;5044151;28;20417;-66
2022/12/23 03:01:24;;;;;;;24.37;12.30;;;7.40;99.90;;;;;;5042087;28;20463;-67
2022/12/23 03:03:50;;;;;;;19.83;12.67;;;7.40;99.90;;;;;;5049797;28;20818;-67
2022/12/23 03:06:30;;;;;;;17.60;11.30;;;7.30;99.90;;;;;;5044556;28;20465;-67
2022/12/23 03:08:58;;;;;;;22.10;11.57;;;7.30;99.90;;;;;;5035989;28;20503;-66
2022/12/23 03:11:49;;;;;;;26.27;10.97;;;7.30;99.90;;;;;;5053143;28;20888;-66
2022/12/23 03:14:20;;;;;;;18.97;11.80;;;7.40;99.90;;;;;;5038758;28;20790;-66
2022/12/23 03:17:08;;;;;;;16.83;11.33;;;7.30;99.90;;;;;;5046111;28;20506;-66
2022/12/23 03:19:48;;;;;;;19.67;11.40;;;7.30;99.90;;;;;;5037659;28;20922;-67
2022/12/23 03:22:20;;;;;;;19.20;10.50;;;7.40;99.90;;;;;;5038742;28;20480;-67
2022/12/23 03:24:57;;;;;;;19.37;11.00;;;7.40;99.90;;;;;;5042320;28;20432;-66
2022/12/23 03:27:37;;;;;;;22.30;10.00;;;7.40;99.90;;;;;;5039356;28;20415;-68
2022/12/23 03:30:15;;;;;;;20.33;9.77;;;7.30;99.90;;;;;;5043806;28;20508;-67
2022/12/23 03:33:12;;;;;;;19.90;11.30;;;7.50;99.90;;;;;;5040489;28;20449;-66
2022/12/23 03:35:42;;;;;;;22.83;11.53;;;7.50;99.90;;;;;;5027763;28;20512;-66
2022/12/23 03:38:10;;;;;;;21.80;11.60;;;7.50;99.90;;;;;;5037277;28;20410;-66
2022/12/23 03:40:40;;;;;;;17.10;11.47;;;7.40;99.90;;;;;;5048260;28;20493;-66
2022/12/23 03:43:14;;;;;;;16.70;9.80;;;7.40;99.90;;;;;;5052929;28;20425;-66
2022/12/23 03:45:47;;;;;;;16.30;11.10;;;7.40;99.90;;;;;;5043405;28;20956;-66
2022/12/23 03:48:30;;;;;;;16.30;10.23;;;7.40;99.90;;;;;;5059532;28;20465;-66
2022/12/23 03:51:01;;;;;;;18.60;10.77;;;7.40;99.90;;;;;;5047646;28;20825;-66
2022/12/23 03:53:48;;;;;;;20.40;11.27;;;7.30;99.90;;;;;;5039891;28;20767;-66
2022/12/23 03:56:19;;;;;;;17.83;10.63;;;7.30;99.90;;;;;;5047862;28;20410;-66
2022/12/23 03:58:57;;;;;;;21.73;10.53;;;7.30;99.90;;;;;;5048658;28;20406;-66
2022/12/23 04:01:22;;;;;;;18.23;12.07;;;7.30;99.90;;;;;;5034533;28;20915;-66
2022/12/23 04:03:51;;;;;;;19.43;11.67;;;7.20;99.90;;;;;;5059632;28;20479;-66
2022/12/23 04:06:19;;;;;;;19.10;11.20;;;7.20;99.90;;;;;;5050467;28;20179;-66
2022/12/23 04:08:46;;;;;;;15.93;10.00;;;7.30;99.90;;;;;;5042801;28;20465;-67
2022/12/23 04:11:13;;;;;;;16.53;9.87;;;7.20;99.90;;;;;;5051592;28;20516;-66
2022/12/23 04:13:39;;;;;;;15.70;10.57;;;7.20;99.90;;;;;;5053434;28;20458;-66
2022/12/23 04:16:05;;;;;;;17.43;12.43;;;7.30;99.90;;;;;;5049881;28;20441;-66
2022/12/23 04:18:32;;;;;;;17.73;12.63;;;7.30;99.90;;;;;;5043773;28;20231;-67
2022/12/23 04:20:57;;;;;;;16.03;10.40;;;7.30;99.90;;;;;;5049744;28;20453;-68
2022/12/23 04:23:23;;;;;;;19.33;11.43;;;7.30;99.90;;;;;;5045590;28;20607;-67
2022/12/23 04:25:49;;;;;;;19.53;10.37;;;7.30;99.90;;;;;;5043160;28;20188;-67
2022/12/23 04:28:15;;;;;;;18.47;10.23;;;7.30;99.90;;;;;;5059130;28;20668;-67
2022/12/23 04:30:40;;;;;;;19.67;10.80;;;7.30;99.90;;;;;;5053086;28;20201;-67
2022/12/23 04:33:06;;;;;;;18.47;10.47;;;7.20;99.90;;;;;;5056946;28;20470;-66
2022/12/23 04:35:31;;;;;;;21.27;12.67;;;7.20;99.90;;;;;;5043738;28;20186;-66
2022/12/23 04:37:57;;;;;;;19.27;10.67;;;7.30;99.90;;;;;;5056185;28;20174;-66
2022/12/23 04:40:23;;;;;;;26.87;11.60;;;7.20;99.90;;;;;;5050944;28;20187;-66
2022/12/23 04:42:48;;;;;;;14.43;10.03;;;7.20;99.90;;;;;;5051736;28;20701;-66
2022/12/23 04:45:14;;;;;;;22.40;12.10;;;7.20;99.90;;;;;;5050885;28;20194;-66
2022/12/23 04:47:39;;;;;;;20.83;12.53;;;7.10;99.90;;;;;;5055720;28;20179;-67
2022/12/23 04:50:06;;;;;;;24.57;12.63;;;7.10;99.90;;;;;;5046293;28;20634;-67
2022/12/23 04:52:31;;;;;;;20.17;10.23;;;7.20;99.90;;;;;;5046525;28;20199;-66
2022/12/23 04:54:57;;;;;;;21.70;11.50;;;7.20;99.90;;;;;;5044687;28;20478;-66
2022/12/23 04:57:22;;;;;;;24.30;11.67;;;7.20;99.90;;;;;;5052504;28;20179;-67
2022/12/23 04:59:48;;;;;;;30.83;14.60;;;7.20;99.90;;;;;;5038728;28;21167;-67
2022/12/23 05:02:14;;;;;;;25.00;12.17;;;7.20;99.90;;;;;;5033256;28;20200;-67
2022/12/23 05:04:39;;;;;;;23.13;11.03;;;7.20;99.90;;;;;;5040229;28;20213;-67
2022/12/23 05:07:05;;;;;;;31.20;14.90;;;7.10;99.90;;;;;;5039245;28;20175;-66
2022/12/23 05:09:31;;;;;;;26.50;13.17;;;7.10;99.90;;;;;;5050304;28;20240;-66
2022/12/23 05:11:56;;;;;;;26.80;11.80;;;7.20;99.90;;;;;;5046847;28;20586;-66
2022/12/23 05:14:22;;;;;;;23.27;12.13;;;7.20;99.90;;;;;;5039129;28;20252;-65
2022/12/23 05:16:47;;;;;;;33.23;12.87;;;7.20;99.90;;;;;;5040068;28;20200;-66
2022/12/23 05:19:13;;;;;;;23.90;12.23;;;7.20;99.90;;;;;;5043236;28;20178;-67
2022/12/23 05:21:39;;;;;;;24.23;12.57;;;7.20;99.90;;;;;;5040877;28;20768;-66
2022/12/23 05:24:04;;;;;;;21.63;11.27;;;7.20;99.90;;;;;;5045068;28;20236;-67
2022/12/23 05:26:30;;;;;;;27.03;11.70;;;7.20;99.90;;;;;;5038741;28;20677;-65
2022/12/23 05:28:55;;;;;;;22.50;11.53;;;7.20;99.90;;;;;;5044531;28;20301;-66
2022/12/23 05:31:21;;;;;;;19.57;12.60;;;7.20;99.90;;;;;;5051526;28;20179;-66
2022/12/23 05:33:47;;;;;;;28.23;13.20;;;7.20;99.90;;;;;;5052583;28;20448;-66
2022/12/23 05:36:12;;;;;;;19.33;10.83;;;7.20;99.90;;;;;;5050463;28;20170;-66
2022/12/23 05:38:38;;;;;;;20.83;13.20;;;7.20;99.90;;;;;;5044504;28;20258;-66
2022/12/23 05:41:04;;;;;;;20.27;11.33;;;7.20;99.90;;;;;;5046624;28;20179;-65
2022/12/23 05:43:30;;;;;;;22.63;12.53;;;7.20;99.90;;;;;;5045085;28;20640;-66
2022/12/23 05:45:55;;;;;;;21.20;11.20;;;7.20;99.90;;;;;;5044047;28;20524;-66
2022/12/23 05:48:21;;;;;;;25.20;12.03;;;7.20;99.90;;;;;;5046830;28;20574;-66
2022/12/23 05:50:51;;;;;;;27.87;13.13;;;7.20;99.90;;;;;;5043712;28;20179;-66
2022/12/23 05:53:18;;;;;;;28.73;12.97;;;7.10;99.90;;;;;;5046308;28;20222;-66
2022/12/23 05:55:43;;;;;;;23.73;11.93;;;7.10;99.90;;;;;;5042885;28;20417;-66
2022/12/23 05:58:09;;;;;;;22.30;12.33;;;7.20;99.90;;;;;;5043939;28;20410;-66
2022/12/23 06:00:35;;;;;;;17.17;10.97;;;7.20;99.90;;;;;;5041886;28;20329;-66
2022/12/23 06:03:01;;;;;;;19.43;11.20;;;7.20;99.90;;;;;;5047043;28;20210;-67
2022/12/23 06:05:26;;;;;;;19.53;10.80;;;7.20;99.90;;;;;;5040082;28;20560;-66
2022/12/23 06:07:52;;;;;;;23.80;11.23;;;7.30;99.90;;;;;;5044639;28;20186;-66
2022/12/23 06:10:17;;;;;;;19.50;10.93;;;7.20;99.90;;;;;;5034244;28;20250;-66
2022/12/23 06:12:43;;;;;;;25.70;12.10;;;7.20;99.90;;;;;;5042495;28;20591;-66
2022/12/23 06:15:09;;;;;;;19.17;11.40;;;7.30;99.90;;;;;;5044072;28;20176;-67
2022/12/23 06:17:34;;;;;;;19.80;10.53;;;7.20;99.90;;;;;;5043245;28;20185;-67
2022/12/23 06:20:00;;;;;;;24.23;12.60;;;7.30;99.90;;;;;;5048763;28;20435;-67
2022/12/23 06:22:26;;;;;;;23.30;12.27;;;7.30;99.90;;;;;;5050767;28;20245;-67
2022/12/23 06:24:51;;;;;;;19.20;10.37;;;7.30;99.90;;;;;;5043013;28;20190;-66
2022/12/23 06:27:17;;;;;;;23.40;10.57;;;7.30;99.90;;;;;;5054827;28;20199;-66
2022/12/23 06:29:43;;;;;;;17.20;9.60;;;7.30;99.90;;;;;;5053167;28;20214;-66
2022/12/23 06:32:09;;;;;;;28.77;13.30;;;7.40;99.90;;;;;;5021147;28;20441;-66
2022/12/23 06:34:34;;;;;;;20.20;10.87;;;7.30;99.90;;;;;;5050236;28;20206;-66
2022/12/23 06:37:00;;;;;;;27.17;11.10;;;7.40;99.90;;;;;;5047128;28;20663;-67
2022/12/23 06:39:26;;;;;;;19.00;11.37;;;7.40;99.90;;;;;;5034021;28;20175;-67
2022/12/23 06:41:52;;;;;;;20.77;11.53;;;7.40;99.90;;;;;;5036999;28;20578;-70
2022/12/23 06:44:17;;;;;;;19.77;10.87;;;7.40;99.90;;;;;;5043432;28;20425;-67
2022/12/23 06:46:43;;;;;;;21.90;12.23;;;7.40;99.90;;;;;;5032332;28;20278;-66
2022/12/23 06:49:09;;;;;;;30.97;13.83;;;7.40;99.90;;;;;;5041707;28;20203;-66
2022/12/23 06:51:34;;;;;;;20.97;11.43;;;7.50;99.90;;;;;;5039628;28;20195;-66
2022/12/23 06:54:00;;;;;;;22.03;10.80;;;7.40;99.90;;;;;;5041744;28;20256;-66
2022/12/23 06:56:26;;;;;;;19.13;11.17;;;7.40;99.90;;;;;;5042868;28;20254;-67
2022/12/23 06:58:52;;;;;;;18.30;11.43;;;7.40;99.90;;;;;;5049437;28;20179;-67
2022/12/23 07:01:18;;;;;;;18.60;12.20;;;7.40;99.90;;;;;;5048439;28;20785;-66
2022/12/23 07:03:44;;;;;;;18.07;10.23;;;7.40;99.90;;;;;;5040466;28;20675;-65
2022/12/23 07:06:09;;;;;;;22.00;10.57;;;7.50;99.90;;;;;;5044685;28;20619;-66
2022/12/23 07:08:35;;;;;;;20.07;10.47;;;7.40;99.90;;;;;;5042483;28;20229;-66
2022/12/23 07:11:02;;;;;;;29.27;11.03;;;7.40;99.90;;;;;;5052867;28;20211;-66
2022/12/23 07:13:28;;;;;;;13.30;9.30;;;7.50;99.90;;;;;;5044838;28;20317;-66
2022/12/23 07:15:54;;;;;;;19.87;11.53;;;7.40;99.90;;;;;;5053160;28;20860;-67
2022/12/23 07:18:23;;;;;;;18.07;10.80;;;7.40;99.90;;;;;;5041000;28;20422;-67
2022/12/23 07:20:50;;;;;;;19.37;11.93;;;7.50;99.90;;;;;;5049933;28;20959;-66
2022/12/23 07:23:15;;;;;;;19.60;10.40;;;7.60;99.90;;;;;;5040330;28;20494;-66
2022/12/23 07:25:41;;;;;;;18.60;9.93;;;7.50;99.90;;;;;;5036339;28;20423;-66
2022/12/23 07:28:07;;;;;;;18.40;9.90;;;7.50;99.90;;;;;;5052787;28;20171;-66
2022/12/23 07:30:32;;;;;;;21.80;11.63;;;7.50;99.90;;;;;;5046176;28;20323;-67
2022/12/23 07:32:58;;;;;;;23.70;10.80;;;7.50;99.90;;;;;;5042065;28;20215;-69
2022/12/23 07:35:24;;;;;;;18.73;10.27;;;7.50;99.90;;;;;;5013627;28;20617;-69
2022/12/23 07:37:52;;;;;;;29.17;11.70;;;7.50;99.90;;;;;;5045019;28;20307;-67
2022/12/23 07:40:17;;;;;;;21.60;10.07;;;7.60;99.90;;;;;;5040531;28;20418;-66
2022/12/23 07:42:43;;;;;;;20.90;8.93;;;7.50;99.90;;;;;;5039597;28;20451;-66
2022/12/23 07:45:09;;;;;;;21.63;9.50;;;7.40;99.90;;;;;;5044527;28;20260;-67
2022/12/23 07:47:35;;;;;;;20.33;8.60;;;7.40;99.90;;;;;;5036624;28;20210;-66
2022/12/23 07:50:00;;;;;;;19.53;9.30;;;7.30;99.90;;;;;;5036384;28;20939;-66
2022/12/23 07:52:27;;;;;;;23.97;8.77;;;7.30;99.90;;;;;;5044606;28;20205;-66
2022/12/23 07:54:53;;;;;;;23.47;9.67;;;7.40;99.90;;;;;;5036108;28;20227;-66
2022/12/23 07:57:18;;;;;;;23.33;8.57;;;7.40;99.90;;;;;;5044701;28;20492;-67
2022/12/23 07:59:44;;;;;;;25.13;9.80;;;7.30;99.90;;;;;;5042934;28;20222;-67
2022/12/23 08:02:10;;;;;;;18.17;8.10;;;7.20;99.90;;;;;;5048756;28;20811;-66
2022/12/23 08:04:35;;;;;;;19.87;8.87;;;7.30;99.90;;;;;;5049561;28;20180;-67
2022/12/23 08:07:01;;;;;;;21.90;9.50;;;7.30;99.90;;;;;;5043335;28;20183;-66
2022/12/23 08:09:26;;;;;;;25.70;9.37;;;7.30;99.90;;;;;;5047386;28;20211;-66
2022/12/23 08:11:52;;;;;;;18.93;8.70;;;7.30;99.90;;;;;;5038466;28;20205;-66
2022/12/23 08:14:18;;;;;;;17.40;7.87;;;7.30;99.90;;;;;;5041479;28;20180;-67
2022/12/23 08:16:44;;;;;;;17.73;8.87;;;7.30;99.90;;;;;;5045362;28;20189;-63
2022/12/23 08:19:09;;;;;;;21.23;7.87;;;7.30;99.90;;;;;;5048021;28;20414;-65
2022/12/23 08:21:35;;;;;;;24.57;8.17;;;7.20;99.90;;;;;;5042883;28;20715;-66
2022/12/23 08:24:01;;;;;;;21.40;8.50;;;7.20;99.90;;;;;;5044141;28;20615;-66
2022/12/23 08:26:27;;;;;;;18.03;8.60;;;7.30;99.90;;;;;;5060632;28;20676;-74
2022/12/23 08:28:52;;;;;;;21.60;8.60;;;7.40;99.90;;;;;;5032132;28;20462;-65
2022/12/23 08:31:24;;;;;;;21.80;8.93;;;7.30;99.90;;;;;;5053181;28;20189;-63
2022/12/23 08:33:52;;;;;;;16.37;8.50;;;7.40;99.90;;;;;;5055891;28;20210;-67
2022/12/23 08:36:21;;;;;;;24.23;8.17;;;7.30;99.90;;;;;;5052134;28;20837;-67
2022/12/23 08:38:47;;;;;;;21.37;8.00;;;7.30;99.90;;;;;;5045931;28;20419;-67
2022/12/23 08:41:16;;;;;;;16.77;7.97;;;7.30;99.90;;;;;;5049013;28;20515;-67
2022/12/23 08:43:42;;;;;;;15.10;7.50;;;7.30;99.90;;;;;;5042992;28;20528;-67
2022/12/23 08:46:07;;;;;;;21.90;9.77;;;7.40;99.90;;;;;;5052467;28;20429;-67
2022/12/23 08:48:34;;;;;;;24.00;8.93;;;7.30;99.90;;;;;;5053030;28;20449;-67
2022/12/23 08:51:05;;;;;;;17.87;7.40;;;7.30;99.90;;;;;;5038977;28;20180;-68
2022/12/23 08:53:32;;;;;;;13.77;5.70;;;7.40;99.90;;;;;;5043555;28;20809;-67
2022/12/23 08:56:02;;;;;;;15.83;6.43;;;7.30;99.90;;;;;;5039998;28;20414;-67
2022/12/23 08:58:28;;;;;;;20.03;7.47;;;7.30;99.90;;;;;;5051389;28;20615;-68
2022/12/23 09:00:54;;;;;;;14.57;6.60;;;7.30;99.90;;;;;;5045942;28;20563;-67
2022/12/23 09:03:19;;;;;;;19.30;7.97;;;7.20;99.90;;;;;;5053459;28;20536;-67
2022/12/23 09:05:45;;;;;;;15.43;7.23;;;7.20;99.90;;;;;;5049433;28;20179;-67
2022/12/23 09:08:11;;;;;;;14.57;7.07;;;7.30;99.90;;;;;;5051904;28;20189;-67
2022/12/23 09:10:41;;;;;;;19.10;7.07;;;7.50;99.90;;;;;;5044022;28;20244;-67
2022/12/23 09:13:08;;;;;;;20.87;7.70;;;7.60;99.90;;;;;;5044016;28;20241;-67
2022/12/23 09:15:37;;;;;;;15.50;5.87;;;7.50;99.90;;;;;;5057194;28;20452;-67
2022/12/23 09:18:03;;;;;;;15.50;8.33;;;7.60;99.90;;;;;;5046366;28;20414;-67
2022/12/23 09:20:29;;;;;;;14.17;8.47;;;7.60;99.90;;;;;;5046809;28;20467;-66
2022/12/23 09:22:55;;;;;;;13.33;5.67;;;7.60;99.90;;;;;;5047377;28;20434;-66
2022/12/23 09:25:20;;;;;;;13.47;6.83;;;7.60;99.90;;;;;;5040322;28;20185;-66
2022/12/23 09:27:46;;;;;;;15.00;6.03;;;7.60;99.90;;;;;;5046778;28;20225;-67
2022/12/23 09:30:12;;;;;;;18.93;7.73;;;7.60;99.90;;;;;;5045708;28;20290;-67
2022/12/23 09:32:37;;;;;;;14.70;5.90;;;7.70;99.90;;;;;;5046535;28;20307;-66
2022/12/23 09:35:03;;;;;;;20.10;7.17;;;7.60;99.90;;;;;;5045755;28;20493;-67
2022/12/23 09:37:29;;;;;;;19.60;7.97;;;7.50;99.90;;;;;;5047036;28;20186;-67
2022/12/23 09:39:54;;;;;;;15.97;6.77;;;7.50;99.90;;;;;;5045967;28;20423;-66
2022/12/23 09:42:47;;;;;;;16.17;6.63;;;7.50;99.90;;;;;;5049502;28;20254;-67
2022/12/23 09:45:21;;;;;;;10.70;6.17;;;7.50;99.90;;;;;;5042801;28;20176;-68
2022/12/23 09:48:13;;;;;;;18.90;6.77;;;7.50;99.90;;;;;;5060112;28;20420;-66
2022/12/23 09:50:40;;;;;;;15.43;7.13;;;7.50;99.90;;;;;;5046634;28;20456;-67
2022/12/23 09:53:07;;;;;;;13.97;6.40;;;7.60;99.90;;;;;;5046434;28;20495;-69
2022/12/23 09:56:07;;;;;;;19.03;8.67;;;7.60;99.90;;;;;;5039664;28;20398;-67
2022/12/23 09:58:56;;;;;;;23.60;7.73;;;7.60;99.90;;;;;;4999512;28;20415;-65
2022/12/23 10:01:21;;;;;;;17.40;8.50;;;7.70;99.90;;;;;;5043901;28;20435;-65
2022/12/23 10:04:07;;;;;;;18.23;7.80;;;7.80;99.90;;;;;;5041293;28;20488;-66
2022/12/23 10:06:34;;;;;;;17.03;7.33;;;7.80;99.90;;;;;;5048104;28;20302;-67
2022/12/23 10:09:02;;;;;;;16.03;7.03;;;7.80;99.90;;;;;;5037327;28;20461;-67
2022/12/23 10:11:36;;;;;;;15.43;6.70;;;7.70;99.90;;;;;;5038831;28;20482;-66
2022/12/23 10:14:14;;;;;;;18.37;8.70;;;7.60;99.90;;;;;;5038937;28;20431;-66
2022/12/23 10:16:56;;;;;;;14.40;8.70;;;7.70;99.90;;;;;;5053326;28;20929;-67
2022/12/23 10:19:25;;;;;;;10.23;6.17;;;7.70;99.90;;;;;;5026165;28;20424;-67
2022/12/23 10:21:52;;;;;;;13.30;6.47;;;7.70;99.90;;;;;;5041468;28;20432;-68
2022/12/23 10:24:26;;;;;;;14.40;7.57;;;7.60;99.90;;;;;;5036264;28;20425;-67
2022/12/23 10:26:59;;;;;;;17.30;7.83;;;7.70;99.90;;;;;;5046396;28;20823;-67
2022/12/23 10:29:30;;;;;;;10.47;5.80;;;7.70;99.90;;;;;;5041232;28;20827;-66
2022/12/23 10:32:43;;;;;;;15.63;7.13;;;7.90;99.90;;;;;;5031995;28;20435;-67
2022/12/23 10:35:32;;;;;;;12.30;7.97;;;7.80;99.90;;;;;;5041214;28;20416;-66
2022/12/23 10:38:10;;;;;;;13.50;6.57;;;7.80;99.90;;;;;;5022491;28;20458;-70
2022/12/23 10:40:48;;;;;;;13.23;7.80;;;7.90;99.90;;;;;;5042604;28;20414;-67
2022/12/23 10:43:40;;;;;;;12.40;7.20;;;7.80;99.90;;;;;;5037592;28;20469;-68
2022/12/23 10:46:23;;;;;;;14.47;7.50;;;7.80;99.90;;;;;;5042950;28;20572;-67
2022/12/23 10:49:21;;;;;;;20.20;8.57;;;7.90;99.90;;;;;;5026884;28;20992;-69
2022/12/23 10:51:52;;;;;;;15.53;8.27;;;8.00;99.90;;;;;;4995281;28;20421;-69
2022/12/23 10:54:28;;;;;;;12.30;9.20;;;8.00;99.90;;;;;;5030498;28;20416;-70
2022/12/23 10:56:53;;;;;;;17.00;9.23;;;8.20;99.90;;;;;;5039171;28;20437;-68
2022/12/23 10:59:26;;;;;;;19.20;7.43;;;8.30;99.90;;;;;;5044890;28;20892;-63
2022/12/23 11:02:03;;;;;;;13.73;7.70;;;8.40;99.90;;;;;;5045248;28;20415;-66
2022/12/23 11:04:36;;;;;;;14.83;7.63;;;8.40;99.90;;;;;;5045899;28;20453;-68
2022/12/23 11:07:02;;;;;;;17.30;7.53;;;8.20;99.90;;;;;;5043259;28;20442;-66
2022/12/23 11:09:37;;;;;;;13.57;7.60;;;8.10;99.90;;;;;;5036886;28;20521;-67
2022/12/23 11:12:06;;;;;;;9.37;6.97;;;8.00;99.90;;;;;;5052299;28;20412;-69
2022/12/23 11:14:50;;;;;;;12.27;7.00;;;8.00;99.90;;;;;;5043363;28;20939;-69
2022/12/23 11:17:33;;;;;;;13.10;6.13;;;8.10;99.90;;;;;;5043256;28;20429;-66
2022/12/23 11:20:17;;;;;;;12.73;5.90;;;8.20;99.90;;;;;;5032686;28;20410;-70
2022/12/23 11:22:49;;;;;;;7.90;6.50;;;8.10;99.90;;;;;;5034469;28;20523;-67
2022/12/23 11:25:34;;;;;;;10.20;6.50;;;8.10;99.90;;;;;;5043519;28;20755;-67
2022/12/23 11:28:09;;;;;;;12.57;6.27;;;8.20;99.90;;;;;;5047201;28;20407;-65
2022/12/23 11:30:45;;;;;;;7.50;4.90;;;8.20;99.90;;;;;;5036169;28;20856;-65
2022/12/23 11:33:22;;;;;;;7.30;5.23;;;8.10;99.90;;;;;;5035404;28;20549;-67
2022/12/23 11:36:07;;;;;;;7.00;5.30;;;8.00;99.90;;;;;;5044741;28;20889;-68
2022/12/23 11:38:36;;;;;;;10.00;6.43;;;8.00;99.90;;;;;;5047912;28;21075;-68
2022/12/23 11:41:03;;;;;;;12.10;6.90;;;8.00;99.90;;;;;;5042646;28;20407;-66
2022/12/23 11:43:32;;;;;;;12.07;6.00;;;7.90;99.90;;;;;;5044584;28;20508;-67
2022/12/23 11:46:32;;;;;;;12.50;7.70;;;7.90;99.90;;;;;;5063182;28;20449;-68
2022/12/23 11:49:19;;;;;;;9.70;7.40;;;7.90;99.90;;;;;;5012579;28;20576;-67
2022/12/23 11:52:15;;;;;;;12.30;9.23;;;8.00;99.90;;;;;;5037806;28;20405;-67
2022/12/23 11:54:54;;;;;;;10.63;7.23;;;8.10;99.90;;;;;;5028205;28;20916;-67
2022/12/23 11:57:39;;;;;;;12.07;7.43;;;8.10;99.90;;;;;;5052294;28;20410;-67
2022/12/23 12:00:16;;;;;;;12.57;7.70;;;8.00;99.90;;;;;;5044599;28;20944;-71
2022/12/23 12:02:44;;;;;;;12.73;7.87;;;8.00;99.90;;;;;;5052836;28;20451;-67
2022/12/23 12:05:39;;;;;;;13.60;7.83;;;8.10;99.90;;;;;;5033631;28;20790;-67
2022/12/23 12:08:15;;;;;;;13.33;8.30;;;7.90;99.90;;;;;;5046080;28;20509;-67
2022/12/23 12:10:41;;;;;;;15.97;9.67;;;7.90;99.90;;;;;;5043636;28;20453;-64
2022/12/23 12:13:27;;;;;;;17.73;9.40;;;7.90;99.90;;;;;;5037192;28;20968;-68
2022/12/23 12:16:10;;;;;;;13.50;8.70;;;7.80;99.90;;;;;;5045925;28;20419;-67
2022/12/23 12:18:38;;;;;;;20.13;10.77;;;7.80;99.90;;;;;;5040248;28;20414;-68
2022/12/23 12:21:09;;;;;;;14.43;8.63;;;7.80;99.90;;;;;;5048979;28;20824;-68
2022/12/23 12:23:38;;;;;;;16.03;9.10;;;7.80;99.90;;;;;;5046711;28;20447;-69
2022/12/23 12:26:12;;;;;;;19.53;9.47;;;7.80;99.90;;;;;;5043493;28;20473;-67
2022/12/23 12:28:41;;;;;;;12.87;8.13;;;7.90;99.90;;;;;;5041140;28;20475;-66
2022/12/23 12:31:34;;;;;;;15.50;7.90;;;8.00;99.90;;;;;;5045621;28;20426;-67
2022/12/23 12:34:11;;;;;;;14.80;8.47;;;8.00;99.90;;;;;;5046046;28;20473;-67
2022/12/23 12:37:10;;;;;;;15.80;8.63;;;8.00;99.90;;;;;;5037815;28;20987;-66
2022/12/23 12:39:50;;;;;;;18.00;9.00;;;8.10;99.90;;;;;;5034119;28;20421;-70
2022/12/23 12:42:51;;;;;;;16.37;7.50;;;8.10;99.90;;;;;;5045078;28;20574;-62
2022/12/23 12:45:19;;;;;;;14.00;9.10;;;8.30;99.90;;;;;;5030952;28;20960;-66
2022/12/23 12:47:57;;;;;;;14.57;7.50;;;8.20;99.90;;;;;;5057017;28;20736;-65
2022/12/23 12:50:28;;;;;;;15.20;9.10;;;8.00;99.90;;;;;;5033974;28;20457;-66
2022/12/23 12:52:58;;;;;;;18.17;8.30;;;8.10;99.90;;;;;;5035504;28;20438;-66
2022/12/23 12:55:38;;;;;;;14.67;9.50;;;8.20;99.90;;;;;;5026168;28;20428;-65
2022/12/23 12:58:16;;;;;;;15.13;8.80;;;8.30;99.90;;;;;;5051426;28;20507;-65
2022/12/23 13:00:53;;;;;;;12.13;7.50;;;8.20;99.90;;;;;;5047233;28;20413;-66
2022/12/23 13:03:55;;;;;;;16.23;8.80;;;8.20;99.90;;;;;;5048991;28;20431;-66
2022/12/23 13:06:44;;;;;;;18.43;8.77;;;8.10;99.90;;;;;;5039099;28;20413;-66
2022/12/23 13:09:29;;;;;;;12.33;8.83;;;8.20;99.90;;;;;;5050079;28;20455;-66
2022/12/23 13:12:10;;;;;;;10.47;6.97;;;8.20;99.90;;;;;;5039428;28;20428;-66
2022/12/23 13:14:55;;;;;;;13.77;7.80;;;8.10;99.90;;;;;;5042588;28;20424;-66
2022/12/23 13:17:27;;;;;;;12.67;8.20;;;8.10;99.90;;;;;;5032751;28;20567;-66
2022/12/23 13:20:17;;;;;;;10.73;7.30;;;8.00;99.90;;;;;;5045046;28;20917;-66
2022/12/23 13:22:45;;;;;;;12.70;7.07;;;8.00;99.90;;;;;;5037430;28;20463;-67
2022/12/23 13:25:17;;;;;;;13.10;7.60;;;8.00;99.90;;;;;;5042637;28;20430;-66
2022/12/23 13:27:45;;;;;;;18.80;7.90;;;7.90;99.90;;;;;;5041857;28;20513;-65